Fort Smith, AR

9:46 PM CDT on May 25, 2015 (GMT -0500)
Sebastian County EOC | | Change Station
CLOSE
Current Station
Personal Weather Station
Location: Fort Smith, AR
Elevation: 442 ft
Nearby Weather Stations

Elev 442 ft 35.32 °N, 94.34 °W | Updated 45 seconds ago

Light Rain
Light Rain
63.9 °F
Feels Like 63.9 °F
N
4.7
Wind Variable Wind from SE
Gusts 7.8 mph

Today
High -- | Low -- °F
--% Chance of Precip.
Yesterday
High -- | Low -- °F
Precip. -- in
6:06 AM 8:22 PM
First Quarter, 54% visible
Pressure 29.86 in
Visibility 10.0 miles
Clouds Mostly Cloudy 11000 ft
Dew Point 64 °F
Humidity 99%
Rainfall 0.85 in
Snow Depth Not available.
UV 0 out of 12
Pollen 5.60 out of 12
Air Quality Not available.
Flu Activity No Activity
SPECI KFSM 260227Z 15007KT 10SM -RA BKN110 18/17 A2986 RMK AO2 P0000 T01830167

More Conditions Fewer Conditions

Pressure 29.86 in
Visibility 10.0 miles
Clouds Mostly Cloudy 11000 ft
Dew Point 64 °F
Humidity 99%
Rainfall 0.85 in
Snow Depth Not available.
UV 0 out of 12
Pollen 5.60 out of 12
Air Quality Not available.
Flu Activity No Activity
SPECI KFSM 260227Z 15007KT 10SM -RA BKN110 18/17 A2986 RMK AO2 P0000 T01830167

More Conditions Fewer Conditions

Nowcast | as of 9:36 PM CDT on May 25, 2015

At 9:35 PM...Doppler radars detected scattered showers and isolated thunderstorms continuing to affect portions of eastern Oklahoma and northwest Arkansas. The heaviest rains were occurring across far southeast Oklahoma. These showers and storms continue to lift off to the northeast at 30 to 40 mph. Through 11:00 PM...occasional showers and isolated thunderstorms will be possible for areas mainly along and east of a line...from Hugo to Welch. The higher potential for thunderstorms will be across far southeast Oklahoma into west central Arkansas and eastern Carroll County...where periods of moderate to heavy rainfall are possible. Elsewhere...occasional light showers will be common...resulting in additional hourly rainfall of one tenth of an inch or less.

×

10-Day Weather Forecast

Almanac

Astronomy

May. 25, 2015 Rise Set
Actual Time
Civil Twilight
Nautical Twilight
Astronomical Twilight
Moon
Length of Visible Light
Length of Day
Tomorrow will be .
, % of the Moon is Illuminated

Today's Extremes

State Highs State Lows

Community

WunderPhotos

Upload Photos

1,824,238 photos uploaded!

WunderBlogs® & News

Nearby

Air Quality

  Air Quality AQ Index Pollutant
Not available.

Snow Depth

Station Depth Elevation

Earthquake Activity

City Distance Mag. Time & Date
Minimum magnitude displayed is 2.5.

Coastal Water Temperatures

Place Temperature

Stations

Nearby Weather Stations

Station Location Temp. Windchill Dew Point Humidity Wind Precip. Elev Updated Type